sensor_id;sensor_type;location;lat;lon;timestamp;P1;durP1;ratioP1;P2;durP2;ratioP2
17151;SDS011;8691;50.828;4.700;2023-12-20T00:01:06;7.17;;;2.00;;
17151;SDS011;8691;50.828;4.700;2023-12-20T00:03:32;8.15;;;1.92;;
17151;SDS011;8691;50.828;4.700;2023-12-20T00:05:59;5.30;;;2.30;;
17151;SDS011;8691;50.828;4.700;2023-12-20T00:08:26;7.45;;;2.33;;
17151;SDS011;8691;50.828;4.700;2023-12-20T00:10:54;6.93;;;2.00;;
17151;SDS011;8691;50.828;4.700;2023-12-20T00:13:20;4.60;;;1.97;;
17151;SDS011;8691;50.828;4.700;2023-12-20T00:15:47;7.28;;;2.33;;
17151;SDS011;8691;50.828;4.700;2023-12-20T00:18:14;8.12;;;2.10;;
17151;SDS011;8691;50.828;4.700;2023-12-20T00:20:41;10.00;;;2.53;;
17151;SDS011;8691;50.828;4.700;2023-12-20T00:23:08;6.53;;;1.60;;
17151;SDS011;8691;50.828;4.700;2023-12-20T00:25:35;6.47;;;2.00;;
17151;SDS011;8691;50.828;4.700;2023-12-20T00:28:01;7.60;;;2.00;;
17151;SDS011;8691;50.828;4.700;2023-12-20T00:30:29;7.78;;;2.00;;
17151;SDS011;8691;50.828;4.700;2023-12-20T00:32:56;7.22;;;2.08;;
17151;SDS011;8691;50.828;4.700;2023-12-20T00:35:24;6.45;;;1.80;;
17151;SDS011;8691;50.828;4.700;2023-12-20T00:37:51;6.77;;;1.97;;
17151;SDS011;8691;50.828;4.700;2023-12-20T00:40:18;5.38;;;2.08;;
17151;SDS011;8691;50.828;4.700;2023-12-20T00:42:46;9.18;;;1.83;;
17151;SDS011;8691;50.828;4.700;2023-12-20T00:45:12;7.35;;;1.95;;
17151;SDS011;8691;50.828;4.700;2023-12-20T00:47:39;7.40;;;2.17;;
17151;SDS011;8691;50.828;4.700;2023-12-20T00:50:06;5.50;;;2.20;;
17151;SDS011;8691;50.828;4.700;2023-12-20T00:52:33;5.68;;;2.05;;
17151;SDS011;8691;50.828;4.700;2023-12-20T00:55:00;6.75;;;1.80;;
17151;SDS011;8691;50.828;4.700;2023-12-20T00:57:27;5.57;;;1.83;;
17151;SDS011;8691;50.828;4.700;2023-12-20T00:59:55;4.97;;;1.90;;
17151;SDS011;8691;50.828;4.700;2023-12-20T01:02:22;3.97;;;1.88;;
17151;SDS011;8691;50.828;4.700;2023-12-20T01:04:48;6.85;;;1.80;;
17151;SDS011;8691;50.828;4.700;2023-12-20T01:07:15;6.82;;;2.12;;
17151;SDS011;8691;50.828;4.700;2023-12-20T01:09:42;7.43;;;2.10;;
17151;SDS011;8691;50.828;4.700;2023-12-20T01:12:09;7.25;;;1.70;;
17151;SDS011;8691;50.828;4.700;2023-12-20T01:14:36;7.55;;;1.67;;
17151;SDS011;8691;50.828;4.700;2023-12-20T01:17:03;8.05;;;2.10;;
17151;SDS011;8691;50.828;4.700;2023-12-20T01:19:29;3.60;;;1.50;;
17151;SDS011;8691;50.828;4.700;2023-12-20T01:21:56;7.07;;;2.20;;
17151;SDS011;8691;50.828;4.700;2023-12-20T01:24:23;4.87;;;2.00;;
17151;SDS011;8691;50.828;4.700;2023-12-20T01:26:50;5.03;;;2.30;;
17151;SDS011;8691;50.828;4.700;2023-12-20T01:29:17;6.75;;;2.10;;
17151;SDS011;8691;50.828;4.700;2023-12-20T01:31:44;6.30;;;1.87;;
17151;SDS011;8691;50.828;4.700;2023-12-20T01:34:10;8.10;;;2.33;;
17151;SDS011;8691;50.828;4.700;2023-12-20T01:36:37;9.68;;;2.60;;
17151;SDS011;8691;50.828;4.700;2023-12-20T01:39:04;7.33;;;2.40;;
17151;SDS011;8691;50.828;4.700;2023-12-20T01:41:31;6.03;;;2.20;;
17151;SDS011;8691;50.828;4.700;2023-12-20T01:43:58;7.87;;;2.40;;
17151;SDS011;8691;50.828;4.700;2023-12-20T01:46:25;6.83;;;2.40;;
17151;SDS011;8691;50.828;4.700;2023-12-20T01:48:52;5.37;;;2.27;;
17151;SDS011;8691;50.828;4.700;2023-12-20T01:51:19;8.37;;;2.43;;
17151;SDS011;8691;50.828;4.700;2023-12-20T01:53:46;6.20;;;2.50;;
17151;SDS011;8691;50.828;4.700;2023-12-20T01:56:12;6.27;;;2.43;;
17151;SDS011;8691;50.828;4.700;2023-12-20T01:58:45;9.37;;;2.20;;
17151;SDS011;8691;50.828;4.700;2023-12-20T02:01:06;9.87;;;2.53;;
17151;SDS011;8691;50.828;4.700;2023-12-20T02:03:33;7.47;;;2.30;;
17151;SDS011;8691;50.828;4.700;2023-12-20T02:06:00;6.43;;;2.10;;
17151;SDS011;8691;50.828;4.700;2023-12-20T02:08:27;7.90;;;2.38;;
17151;SDS011;8691;50.828;4.700;2023-12-20T02:10:53;6.45;;;2.62;;
17151;SDS011;8691;50.828;4.700;2023-12-20T02:13:20;5.83;;;2.40;;
17151;SDS011;8691;50.828;4.700;2023-12-20T02:15:47;11.47;;;2.57;;
17151;SDS011;8691;50.828;4.700;2023-12-20T02:18:14;8.23;;;2.60;;
17151;SDS011;8691;50.828;4.700;2023-12-20T02:20:41;9.73;;;2.53;;
17151;SDS011;8691;50.828;4.700;2023-12-20T02:23:08;6.67;;;2.77;;
17151;SDS011;8691;50.828;4.700;2023-12-20T02:25:35;6.10;;;2.40;;
17151;SDS011;8691;50.828;4.700;2023-12-20T02:28:02;8.20;;;2.83;;
17151;SDS011;8691;50.828;4.700;2023-12-20T02:30:29;7.90;;;2.40;;
17151;SDS011;8691;50.828;4.700;2023-12-20T02:32:55;5.70;;;2.63;;
17151;SDS011;8691;50.828;4.700;2023-12-20T02:35:23;6.43;;;2.27;;
17151;SDS011;8691;50.828;4.700;2023-12-20T02:37:50;6.88;;;2.70;;
17151;SDS011;8691;50.828;4.700;2023-12-20T02:40:17;8.40;;;2.72;;
17151;SDS011;8691;50.828;4.700;2023-12-20T02:42:44;8.48;;;2.55;;
17151;SDS011;8691;50.828;4.700;2023-12-20T02:45:11;7.03;;;2.55;;
17151;SDS011;8691;50.828;4.700;2023-12-20T02:47:38;6.50;;;2.67;;
17151;SDS011;8691;50.828;4.700;2023-12-20T02:50:05;9.05;;;2.70;;
17151;SDS011;8691;50.828;4.700;2023-12-20T02:52:32;11.00;;;2.60;;
17151;SDS011;8691;50.828;4.700;2023-12-20T02:54:59;7.07;;;2.53;;
17151;SDS011;8691;50.828;4.700;2023-12-20T02:57:27;9.45;;;2.75;;
17151;SDS011;8691;50.828;4.700;2023-12-20T02:59:54;7.97;;;2.45;;
17151;SDS011;8691;50.828;4.700;2023-12-20T03:02:20;7.50;;;2.55;;
17151;SDS011;8691;50.828;4.700;2023-12-20T03:04:47;9.32;;;2.70;;
17151;SDS011;8691;50.828;4.700;2023-12-20T03:07:15;5.75;;;2.30;;
17151;SDS011;8691;50.828;4.700;2023-12-20T03:09:42;6.90;;;2.70;;
17151;SDS011;8691;50.828;4.700;2023-12-20T03:12:09;9.17;;;2.67;;
17151;SDS011;8691;50.828;4.700;2023-12-20T03:14:35;6.00;;;2.60;;
17151;SDS011;8691;50.828;4.700;2023-12-20T03:17:02;6.23;;;2.50;;
17151;SDS011;8691;50.828;4.700;2023-12-20T03:19:29;7.07;;;2.50;;
17151;SDS011;8691;50.828;4.700;2023-12-20T03:21:56;9.37;;;2.23;;
17151;SDS011;8691;50.828;4.700;2023-12-20T03:24:23;8.82;;;2.88;;
17151;SDS011;8691;50.828;4.700;2023-12-20T03:26:50;10.65;;;2.53;;
17151;SDS011;8691;50.828;4.700;2023-12-20T03:29:16;7.97;;;2.65;;
17151;SDS011;8691;50.828;4.700;2023-12-20T03:31:43;8.30;;;2.73;;
17151;SDS011;8691;50.828;4.700;2023-12-20T03:34:10;9.50;;;2.75;;
17151;SDS011;8691;50.828;4.700;2023-12-20T03:36:38;8.68;;;2.72;;
17151;SDS011;8691;50.828;4.700;2023-12-20T03:39:05;8.23;;;2.70;;
17151;SDS011;8691;50.828;4.700;2023-12-20T03:41:32;10.52;;;3.40;;
17151;SDS011;8691;50.828;4.700;2023-12-20T03:43:58;9.73;;;2.62;;
17151;SDS011;8691;50.828;4.700;2023-12-20T03:46:25;11.27;;;2.72;;
17151;SDS011;8691;50.828;4.700;2023-12-20T03:48:52;9.30;;;2.88;;
17151;SDS011;8691;50.828;4.700;2023-12-20T03:51:20;8.77;;;2.90;;
17151;SDS011;8691;50.828;4.700;2023-12-20T03:53:47;8.38;;;2.97;;
17151;SDS011;8691;50.828;4.700;2023-12-20T03:56:14;6.95;;;3.05;;
17151;SDS011;8691;50.828;4.700;2023-12-20T03:58:41;9.43;;;3.00;;
17151;SDS011;8691;50.828;4.700;2023-12-20T04:01:11;9.60;;;3.10;;
17151;SDS011;8691;50.828;4.700;2023-12-20T04:03:38;8.00;;;3.08;;
17151;SDS011;8691;50.828;4.700;2023-12-20T04:06:05;9.23;;;3.10;;
17151;SDS011;8691;50.828;4.700;2023-12-20T04:08:32;8.15;;;3.20;;
17151;SDS011;8691;50.828;4.700;2023-12-20T04:10:59;6.17;;;2.93;;
17151;SDS011;8691;50.828;4.700;2023-12-20T04:13:26;4.47;;;2.33;;
17151;SDS011;8691;50.828;4.700;2023-12-20T04:15:52;8.63;;;3.03;;
17151;SDS011;8691;50.828;4.700;2023-12-20T04:18:19;9.18;;;3.03;;
17151;SDS011;8691;50.828;4.700;2023-12-20T04:20:46;10.18;;;3.10;;
17151;SDS011;8691;50.828;4.700;2023-12-20T04:23:13;9.95;;;3.40;;
17151;SDS011;8691;50.828;4.700;2023-12-20T04:25:40;8.50;;;3.28;;
17151;SDS011;8691;50.828;4.700;2023-12-20T04:28:07;5.40;;;2.47;;
17151;SDS011;8691;50.828;4.700;2023-12-20T04:30:33;11.45;;;3.17;;
17151;SDS011;8691;50.828;4.700;2023-12-20T04:33:00;7.93;;;3.05;;
17151;SDS011;8691;50.828;4.700;2023-12-20T04:35:27;7.70;;;2.85;;
17151;SDS011;8691;50.828;4.700;2023-12-20T04:37:54;8.52;;;3.22;;
17151;SDS011;8691;50.828;4.700;2023-12-20T04:40:21;11.88;;;3.33;;
17151;SDS011;8691;50.828;4.700;2023-12-20T04:42:48;8.93;;;3.03;;
17151;SDS011;8691;50.828;4.700;2023-12-20T04:45:15;8.15;;;3.10;;
17151;SDS011;8691;50.828;4.700;2023-12-20T04:47:42;12.65;;;3.42;;
17151;SDS011;8691;50.828;4.700;2023-12-20T04:50:08;13.52;;;3.25;;
17151;SDS011;8691;50.828;4.700;2023-12-20T04:52:35;9.62;;;3.40;;
17151;SDS011;8691;50.828;4.700;2023-12-20T04:55:02;7.32;;;3.30;;
17151;SDS011;8691;50.828;4.700;2023-12-20T04:57:29;7.53;;;3.15;;
17151;SDS011;8691;50.828;4.700;2023-12-20T04:59:56;9.10;;;2.85;;
17151;SDS011;8691;50.828;4.700;2023-12-20T05:02:23;8.82;;;3.25;;
17151;SDS011;8691;50.828;4.700;2023-12-20T05:04:50;8.07;;;2.97;;
17151;SDS011;8691;50.828;4.700;2023-12-20T05:07:17;10.00;;;3.33;;
17151;SDS011;8691;50.828;4.700;2023-12-20T05:09:44;10.32;;;3.20;;
17151;SDS011;8691;50.828;4.700;2023-12-20T05:12:11;9.10;;;3.42;;
17151;SDS011;8691;50.828;4.700;2023-12-20T05:14:38;9.27;;;3.40;;
17151;SDS011;8691;50.828;4.700;2023-12-20T05:17:05;8.75;;;3.08;;
17151;SDS011;8691;50.828;4.700;2023-12-20T05:19:33;10.15;;;3.33;;
17151;SDS011;8691;50.828;4.700;2023-12-20T05:21:59;9.67;;;2.63;;
17151;SDS011;8691;50.828;4.700;2023-12-20T05:24:26;8.68;;;3.22;;
17151;SDS011;8691;50.828;4.700;2023-12-20T05:26:54;10.47;;;3.23;;
17151;SDS011;8691;50.828;4.700;2023-12-20T05:29:21;9.90;;;3.62;;
17151;SDS011;8691;50.828;4.700;2023-12-20T05:31:48;9.18;;;3.08;;
17151;SDS011;8691;50.828;4.700;2023-12-20T05:34:14;7.40;;;3.00;;
17151;SDS011;8691;50.828;4.700;2023-12-20T05:36:41;6.15;;;2.50;;
17151;SDS011;8691;50.828;4.700;2023-12-20T05:39:08;8.32;;;3.00;;
17151;SDS011;8691;50.828;4.700;2023-12-20T05:41:35;8.98;;;3.00;;
17151;SDS011;8691;50.828;4.700;2023-12-20T05:44:02;13.38;;;4.07;;
17151;SDS011;8691;50.828;4.700;2023-12-20T05:46:29;6.95;;;2.83;;
17151;SDS011;8691;50.828;4.700;2023-12-20T05:48:56;7.18;;;2.85;;
17151;SDS011;8691;50.828;4.700;2023-12-20T05:51:23;10.90;;;3.28;;
17151;SDS011;8691;50.828;4.700;2023-12-20T05:53:49;9.38;;;3.33;;
17151;SDS011;8691;50.828;4.700;2023-12-20T05:56:17;9.52;;;2.75;;
17151;SDS011;8691;50.828;4.700;2023-12-20T05:58:44;7.50;;;3.07;;
17151;SDS011;8691;50.828;4.700;2023-12-20T06:01:11;9.60;;;3.15;;
17151;SDS011;8691;50.828;4.700;2023-12-20T06:03:40;12.32;;;3.28;;
17151;SDS011;8691;50.828;4.700;2023-12-20T06:06:07;12.52;;;3.17;;
17151;SDS011;8691;50.828;4.700;2023-12-20T06:08:35;10.10;;;3.03;;
17151;SDS011;8691;50.828;4.700;2023-12-20T06:11:02;8.80;;;2.90;;
17151;SDS011;8691;50.828;4.700;2023-12-20T06:13:29;11.23;;;3.80;;
17151;SDS011;8691;50.828;4.700;2023-12-20T06:15:56;9.90;;;3.40;;
17151;SDS011;8691;50.828;4.700;2023-12-20T06:18:23;9.17;;;3.60;;
17151;SDS011;8691;50.828;4.700;2023-12-20T06:20:49;10.40;;;3.67;;
17151;SDS011;8691;50.828;4.700;2023-12-20T06:23:16;10.37;;;3.53;;
17151;SDS011;8691;50.828;4.700;2023-12-20T06:25:43;8.60;;;3.33;;
17151;SDS011;8691;50.828;4.700;2023-12-20T06:28:10;11.27;;;3.33;;
17151;SDS011;8691;50.828;4.700;2023-12-20T06:30:37;9.07;;;3.23;;
17151;SDS011;8691;50.828;4.700;2023-12-20T06:33:05;7.23;;;3.23;;
17151;SDS011;8691;50.828;4.700;2023-12-20T06:35:31;9.23;;;3.62;;
17151;SDS011;8691;50.828;4.700;2023-12-20T06:37:58;8.98;;;3.20;;
17151;SDS011;8691;50.828;4.700;2023-12-20T06:40:25;11.55;;;3.05;;
17151;SDS011;8691;50.828;4.700;2023-12-20T06:42:52;8.70;;;2.67;;
17151;SDS011;8691;50.828;4.700;2023-12-20T06:45:19;8.63;;;3.30;;
17151;SDS011;8691;50.828;4.700;2023-12-20T06:47:46;9.07;;;3.43;;
17151;SDS011;8691;50.828;4.700;2023-12-20T06:50:13;10.33;;;3.33;;
17151;SDS011;8691;50.828;4.700;2023-12-20T06:52:40;7.20;;;2.70;;
17151;SDS011;8691;50.828;4.700;2023-12-20T06:55:07;8.13;;;3.77;;
17151;SDS011;8691;50.828;4.700;2023-12-20T06:57:34;9.00;;;2.80;;
17151;SDS011;8691;50.828;4.700;2023-12-20T07:00:01;9.23;;;2.33;;
17151;SDS011;8691;50.828;4.700;2023-12-20T07:02:27;7.57;;;2.43;;
17151;SDS011;8691;50.828;4.700;2023-12-20T07:04:54;9.20;;;2.60;;
17151;SDS011;8691;50.828;4.700;2023-12-20T07:07:21;8.67;;;2.87;;
17151;SDS011;8691;50.828;4.700;2023-12-20T07:09:48;7.73;;;3.00;;
17151;SDS011;8691;50.828;4.700;2023-12-20T07:12:15;7.80;;;2.30;;
17151;SDS011;8691;50.828;4.700;2023-12-20T07:14:42;5.57;;;2.00;;
17151;SDS011;8691;50.828;4.700;2023-12-20T07:17:08;8.82;;;2.60;;
17151;SDS011;8691;50.828;4.700;2023-12-20T07:19:35;7.18;;;2.85;;
17151;SDS011;8691;50.828;4.700;2023-12-20T07:22:03;5.70;;;2.47;;
17151;SDS011;8691;50.828;4.700;2023-12-20T07:24:30;5.75;;;2.35;;
17151;SDS011;8691;50.828;4.700;2023-12-20T07:26:57;8.30;;;2.65;;
17151;SDS011;8691;50.828;4.700;2023-12-20T07:29:24;7.43;;;2.78;;
17151;SDS011;8691;50.828;4.700;2023-12-20T07:31:52;10.75;;;2.95;;
17151;SDS011;8691;50.828;4.700;2023-12-20T07:34:18;8.73;;;1.97;;
17151;SDS011;8691;50.828;4.700;2023-12-20T07:36:45;7.23;;;2.20;;
17151;SDS011;8691;50.828;4.700;2023-12-20T07:39:12;7.20;;;2.55;;
17151;SDS011;8691;50.828;4.700;2023-12-20T07:41:38;8.82;;;2.88;;
17151;SDS011;8691;50.828;4.700;2023-12-20T07:44:06;9.55;;;2.55;;
17151;SDS011;8691;50.828;4.700;2023-12-20T07:46:32;6.12;;;2.42;;
17151;SDS011;8691;50.828;4.700;2023-12-20T07:48:59;7.82;;;2.45;;
17151;SDS011;8691;50.828;4.700;2023-12-20T07:51:26;9.87;;;3.00;;
17151;SDS011;8691;50.828;4.700;2023-12-20T07:53:53;5.72;;;2.05;;
17151;SDS011;8691;50.828;4.700;2023-12-20T07:56:20;7.25;;;2.53;;
17151;SDS011;8691;50.828;4.700;2023-12-20T07:58:48;3.93;;;1.80;;
17151;SDS011;8691;50.828;4.700;2023-12-20T08:01:15;10.07;;;2.47;;
